Time;durP1;ratioP1;P1;durP2;ratioP2;P2;SDS_P1;SDS_P2;PMS_P1;PMS_P2;Temp;Humidity;BMP_temperature;BMP_pressure;BME280_temperature;BME280_humidity;BME280_pressure;Samples;Min_cycle;Max_cycle;Signal;HPM_P1;HPM_P2
2023/12/23 00:02:23;;;;;;;3.65;1.20;;;;;;;18.97;48.34;101053.16;5030102;28;20076;-43
2023/12/23 00:04:50;;;;;;;2.60;1.00;;;;;;;19.02;48.35;101062.59;5026259;28;20136;-43
2023/12/23 00:07:17;;;;;;;2.55;1.35;;;;;;;19.04;48.20;101055.19;5024056;28;20049;-42
2023/12/23 00:09:43;;;;;;;5.45;1.20;;;;;;;19.03;47.90;101056.22;5024472;28;20138;-42
2023/12/23 00:12:10;;;;;;;3.58;1.10;;;;;;;18.99;48.36;101048.44;5022184;28;20050;-43
2023/12/23 00:14:37;;;;;;;4.00;1.00;;;;;;;18.98;48.09;101038.72;5026869;28;20049;-43
2023/12/23 00:17:04;;;;;;;3.17;1.00;;;;;;;18.97;47.98;101042.41;5027235;28;20045;-42
2023/12/23 00:19:30;;;;;;;2.78;1.40;;;;;;;18.94;48.15;101041.88;5031078;28;20230;-43
2023/12/23 00:21:57;;;;;;;4.00;0.90;;;;;;;18.90;48.27;101024.38;5028767;28;20091;-43
2023/12/23 00:24:29;;;;;;;3.33;1.25;;;;;;;18.84;48.43;101036.56;5031402;28;20401;-42
2023/12/23 00:26:57;;;;;;;1.65;1.00;;;;;;;18.79;48.37;101030.81;5025685;28;20426;-42
2023/12/23 00:29:24;;;;;;;3.03;1.20;;;;;;;18.72;48.51;101027.88;5027191;28;20529;-41
2023/12/23 00:31:51;;;;;;;2.22;0.95;;;;;;;18.69;48.89;101032.69;5023956;28;20053;-43
2023/12/23 00:34:18;;;;;;;2.95;1.48;;;;;;;18.65;48.78;101042.91;5029851;28;20053;-43
2023/12/23 00:36:45;;;;;;;2.13;0.80;;;;;;;18.59;48.73;101035.47;5023504;28;20328;-43
2023/12/23 00:39:12;;;;;;;2.95;0.95;;;;;;;18.55;48.78;101039.44;5028227;28;20046;-42
2023/12/23 00:41:39;;;;;;;3.00;1.17;;;;;;;18.52;49.01;101037.06;5029436;28;20381;-42
2023/12/23 00:44:05;;;;;;;1.73;0.85;;;;;;;18.47;49.29;101029.47;5028406;28;20353;-42
2023/12/23 00:46:32;;;;;;;2.58;1.05;;;;;;;18.44;49.13;101026.25;5026520;28;20452;-42
2023/12/23 00:48:59;;;;;;;2.67;0.98;;;;;;;18.41;48.74;101024.72;5032741;28;20132;-42
2023/12/23 00:51:26;;;;;;;4.85;1.20;;;;;;;18.39;49.04;101031.22;5028296;28;20045;-42
2023/12/23 00:53:52;;;;;;;4.25;1.42;;;;;;;18.35;49.20;101043.25;5029707;28;20147;-42
2023/12/23 00:56:20;;;;;;;2.55;1.17;;;;;;;18.33;49.02;101037.19;5025191;28;20121;-42
2023/12/23 00:58:47;;;;;;;4.22;1.15;;;;;;;18.30;49.10;101029.47;5033666;28;20117;-41
2023/12/23 01:01:14;;;;;;;2.60;1.02;;;;;;;18.27;49.34;101027.06;5030130;28;20049;-42
2023/12/23 01:03:41;;;;;;;2.95;1.17;;;;;;;18.22;49.51;101012.25;5023460;28;20045;-42
2023/12/23 01:06:07;;;;;;;1.42;0.95;;;;;;;18.21;49.65;101005.22;5027906;28;20081;-42
2023/12/23 01:08:34;;;;;;;1.75;0.85;;;;;;;18.18;49.78;100985.91;5027223;28;20477;-43
2023/12/23 01:11:01;;;;;;;2.22;0.95;;;;;;;18.16;49.69;100999.44;5023075;28;20057;-43
2023/12/23 01:13:28;;;;;;;3.58;1.40;;;;;;;18.14;49.45;100990.72;5024239;28;20102;-43
2023/12/23 01:15:55;;;;;;;2.90;1.10;;;;;;;18.12;49.47;100987.31;5024957;28;20073;-42
2023/12/23 01:18:22;;;;;;;5.18;1.30;;;;;;;18.15;49.72;100983.50;5025463;28;20392;-42
2023/12/23 01:20:48;;;;;;;2.47;0.88;;;;;;;18.17;49.73;100982.38;5026635;28;20444;-42
2023/12/23 01:23:15;;;;;;;3.00;1.10;;;;;;;18.22;49.60;100979.22;5027013;28;20441;-42
2023/12/23 01:25:42;;;;;;;3.28;0.98;;;;;;;18.28;49.84;100959.81;5026079;28;20061;-43
2023/12/23 01:28:09;;;;;;;1.50;0.88;;;;;;;18.35;49.63;100965.44;5029019;28;20326;-43
2023/12/23 01:30:36;;;;;;;1.88;0.70;;;;;;;18.40;49.17;100972.03;5036003;28;20134;-43
2023/12/23 01:33:03;;;;;;;3.67;1.10;;;;;;;18.45;49.36;100975.13;5040608;28;20052;-42
2023/12/23 01:35:29;;;;;;;2.30;0.88;;;;;;;18.49;49.80;100964.88;5027501;28;20059;-42
2023/12/23 01:37:56;;;;;;;2.17;0.90;;;;;;;18.52;49.20;100955.69;5030506;28;20050;-43
2023/12/23 01:40:25;;;;;;;3.13;0.98;;;;;;;18.53;49.19;100963.59;5026490;28;20140;-42
2023/12/23 01:42:52;;;;;;;2.53;0.80;;;;;;;18.54;49.37;100969.81;5023073;28;20099;-41
2023/12/23 01:45:19;;;;;;;4.18;1.30;;;;;;;18.53;49.60;100963.59;5024724;28;20124;-43
2023/12/23 01:47:48;;;;;;;2.83;1.10;;;;;;;18.50;48.95;100958.53;5025605;28;20112;-42
2023/12/23 01:50:17;;;;;;;2.38;1.00;;;;;;;18.46;49.13;100941.06;5027935;28;20532;-42
2023/12/23 01:52:45;;;;;;;2.25;0.82;;;;;;;18.42;49.27;100942.38;5027665;28;20041;-41
2023/12/23 01:55:12;;;;;;;1.90;0.95;;;;;;;18.37;49.37;100944.66;5026133;28;20385;-42
2023/12/23 01:57:39;;;;;;;2.40;0.65;;;;;;;18.32;49.99;100938.91;5028798;28;20070;-43
2023/12/23 02:00:07;;;;;;;3.42;1.10;;;;;;;18.28;49.38;100930.31;5026729;28;20063;-42
2023/12/23 02:02:38;;;;;;;3.05;0.93;;;;;;;18.25;49.79;100941.34;5026162;28;20057;-41
2023/12/23 02:05:06;;;;;;;1.75;0.63;;;;;;;18.21;49.65;100926.53;5020708;28;20081;-42
2023/12/23 02:07:35;;;;;;;3.40;1.02;;;;;;;18.17;50.00;100923.34;5027256;28;20477;-42
2023/12/23 02:10:03;;;;;;;3.20;1.23;;;;;;;18.16;49.92;100936.91;5024295;28;20064;-42
2023/12/23 02:12:39;;;;;;;2.47;0.90;;;;;;;18.10;49.77;100924.94;5020995;28;20053;-41
2023/12/23 02:15:10;;;;;;;2.90;1.10;;;;;;;18.09;50.34;100925.09;5021234;28;20046;-41
2023/12/23 02:17:40;;;;;;;2.15;0.70;;;;;;;18.07;49.84;100919.03;5028179;28;20052;-42
2023/12/23 02:20:08;;;;;;;2.40;0.90;;;;;;;18.04;50.30;100914.81;5021572;28;20052;-42
2023/12/23 02:22:35;;;;;;;1.73;0.90;;;;;;;18.01;50.17;100909.78;5023364;28;20085;-42
2023/12/23 02:25:02;;;;;;;1.90;1.00;;;;;;;17.98;49.82;100905.56;5025387;28;20045;-41
2023/12/23 02:27:44;;;;;;;1.52;0.90;;;;;;;17.95;50.19;100911.22;5021944;28;20128;-42
2023/12/23 02:30:15;;;;;;;4.03;1.38;;;;;;;17.94;50.52;100906.00;5021284;28;20077;-42
2023/12/23 02:32:42;;;;;;;1.42;0.75;;;;;;;17.92;50.47;100906.16;5023410;28;20124;-42
2023/12/23 02:35:11;;;;;;;1.35;0.85;;;;;;;17.92;50.37;100898.09;5025486;28;20127;-42
2023/12/23 02:37:38;;;;;;;1.25;0.70;;;;;;;17.96;50.69;100885.22;5027765;28;20053;-42
2023/12/23 02:40:05;;;;;;;2.72;1.00;;;;;;;17.97;50.37;100882.41;5028256;28;20045;-42
2023/12/23 02:42:32;;;;;;;1.48;0.80;;;;;;;18.02;50.57;100891.84;5029330;28;20091;-42
2023/12/23 02:44:59;;;;;;;2.65;1.15;;;;;;;18.06;50.47;100880.66;5028969;28;20132;-41
2023/12/23 02:47:25;;;;;;;2.35;0.95;;;;;;;18.11;50.42;100877.50;5021445;28;20063;-42
2023/12/23 02:49:52;;;;;;;2.08;0.77;;;;;;;18.14;49.97;100871.84;5021174;28;20058;-42
2023/12/23 02:52:18;;;;;;;4.43;1.10;;;;;;;18.18;50.31;100870.53;5026076;28;20056;-42
2023/12/23 02:54:45;;;;;;;4.95;0.90;;;;;;;18.20;50.32;100861.31;5024561;28;20054;-42
2023/12/23 02:57:11;;;;;;;2.13;1.40;;;;;;;18.22;50.14;100862.03;5024452;28;20134;-42
2023/12/23 02:59:38;;;;;;;1.77;0.88;;;;;;;18.23;49.92;100866.38;5030690;28;20131;-42
2023/12/23 03:02:05;;;;;;;4.10;1.00;;;;;;;18.24;49.95;100853.81;5022073;28;20053;-42
2023/12/23 03:04:32;;;;;;;2.50;0.90;;;;;;;18.25;50.26;100850.13;5028019;28;20436;-42
2023/12/23 03:07:00;;;;;;;2.03;0.88;;;;;;;18.24;50.10;100849.28;5030766;28;20397;-42
2023/12/23 03:09:26;;;;;;;2.65;0.93;;;;;;;18.24;50.17;100838.56;5029110;28;20050;-42
2023/12/23 03:11:53;;;;;;;3.08;1.20;;;;;;;18.24;49.95;100845.75;5028978;28;20136;-42
2023/12/23 03:14:19;;;;;;;2.92;0.90;;;;;;;18.24;49.65;100848.44;5023390;28;20041;-42
2023/12/23 03:16:46;;;;;;;3.75;1.20;;;;;;;18.23;49.69;100852.97;5023627;28;20058;-42
2023/12/23 03:19:13;;;;;;;2.38;1.15;;;;;;;18.22;50.10;100848.59;5023278;28;20417;-42
2023/12/23 03:21:43;;;;;;;1.85;0.70;;;;;;;18.21;49.86;100844.25;5024917;28;20053;-42
2023/12/23 03:24:10;;;;;;;3.55;1.10;;;;;;;18.21;49.95;100835.34;5022726;28;20077;-42
2023/12/23 03:26:37;;;;;;;3.20;1.05;;;;;;;18.18;50.43;100838.34;5028042;28;20053;-42
2023/12/23 03:29:08;;;;;;;3.70;1.00;;;;;;;18.17;49.99;100836.63;5030428;28;20140;-42
2023/12/23 03:31:35;;;;;;;2.45;1.20;;;;;;;18.14;50.38;100829.75;5028249;28;20115;-42
2023/12/23 03:34:02;;;;;;;4.22;1.40;;;;;;;18.12;50.24;100822.84;5032541;28;20049;-42
2023/12/23 03:36:29;;;;;;;3.00;1.05;;;;;;;18.09;50.40;100826.72;5031749;28;20053;-42
2023/12/23 03:38:55;;;;;;;2.92;1.25;;;;;;;18.07;50.35;100801.03;5037094;28;20042;-42
2023/12/23 03:41:22;;;;;;;2.42;1.13;;;;;;;18.06;50.70;100810.91;5029858;28;20081;-42
2023/12/23 03:43:49;;;;;;;4.90;1.40;;;;;;;18.07;50.11;100799.19;5026765;28;20137;-42
2023/12/23 03:46:20;;;;;;;2.92;1.23;;;;;;;18.08;50.40;100798.19;5026356;28;20080;-43
2023/12/23 03:48:47;;;;;;;5.85;1.40;;;;;;;18.12;50.30;100799.56;5025770;28;20049;-42
2023/12/23 03:51:14;;;;;;;4.82;1.55;;;;;;;18.16;50.11;100808.13;5026208;28;20085;-42
2023/12/23 03:53:42;;;;;;;5.63;1.42;;;;;;;18.21;49.95;100822.78;5025524;28;20049;-41
2023/12/23 03:56:09;;;;;;;4.60;1.42;;;;;;;18.24;50.28;100814.41;5027342;28;20050;-42
2023/12/23 03:58:35;;;;;;;2.47;1.35;;;;;;;18.28;50.39;100796.16;5026201;28;20346;-43
2023/12/23 04:01:02;;;;;;;4.78;1.60;;;;;;;18.32;49.89;100799.38;5026811;28;20132;-43
2023/12/23 04:03:29;;;;;;;4.85;1.17;;;;;;;18.33;49.77;100806.41;5024742;28;20111;-42
2023/12/23 04:05:56;;;;;;;3.92;1.30;;;;;;;18.33;50.24;100796.56;5035396;28;20350;-42
2023/12/23 04:08:23;;;;;;;3.80;1.50;;;;;;;18.32;49.96;100780.59;5029375;28;20423;-42
2023/12/23 04:10:50;;;;;;;4.43;1.30;;;;;;;18.30;49.88;100794.19;5030972;28;20056;-42
2023/12/23 04:13:16;;;;;;;5.38;1.33;;;;;;;18.27;50.10;100790.97;5027278;28;20049;-43
2023/12/23 04:15:43;;;;;;;4.07;1.45;;;;;;;18.23;50.22;100787.75;5026855;28;20052;-42
2023/12/23 04:18:10;;;;;;;3.38;1.27;;;;;;;18.19;50.07;100784.53;5030006;28;20042;-42
2023/12/23 04:20:37;;;;;;;4.82;1.40;;;;;;;18.15;50.12;100769.75;5026576;28;20049;-43
2023/12/23 04:23:03;;;;;;;3.45;1.27;;;;;;;18.12;50.39;100766.53;5027687;28;20124;-42
2023/12/23 04:25:30;;;;;;;4.40;1.60;;;;;;;18.10;50.31;100777.44;5025568;28;20121;-42
2023/12/23 04:27:57;;;;;;;4.53;1.35;;;;;;;18.06;50.22;100776.06;5028145;28;20077;-43
2023/12/23 04:30:23;;;;;;;3.92;1.27;;;;;;;18.04;50.26;100786.06;5024986;28;20103;-42
2023/12/23 04:32:50;;;;;;;6.10;1.20;;;;;;;18.03;50.36;100773.69;5029480;28;20128;-43
2023/12/23 04:35:17;;;;;;;4.68;1.38;;;;;;;17.99;50.45;100769.63;5021636;28;20348;-42
2023/12/23 04:37:44;;;;;;;4.63;1.65;;;;;;;17.98;50.55;100776.00;5028250;28;20139;-42
2023/12/23 04:40:11;;;;;;;4.60;1.40;;;;;;;17.96;50.65;100764.56;5041746;28;20049;-42
2023/12/23 04:42:38;;;;;;;6.72;1.83;;;;;;;17.93;50.85;100763.06;5025640;28;20251;-42
2023/12/23 04:45:06;;;;;;;4.30;1.40;;;;;;;17.92;50.85;100765.88;5022435;28;20081;-41
2023/12/23 04:47:33;;;;;;;5.35;1.75;;;;;;;17.90;50.59;100765.19;5025649;28;20041;-42
2023/12/23 04:50:00;;;;;;;4.75;1.60;;;;;;;17.89;50.70;100758.13;5033124;28;20077;-42
2023/12/23 04:52:26;;;;;;;7.00;1.85;;;;;;;17.87;50.46;100760.97;5025984;28;20046;-43
2023/12/23 04:54:53;;;;;;;8.40;1.73;;;;;;;17.87;50.80;100752.09;5026920;28;20085;-42
2023/12/23 04:57:20;;;;;;;7.30;1.67;;;;;;;17.85;50.93;100746.03;5027113;28;20393;-42
2023/12/23 04:59:46;;;;;;;7.13;1.55;;;;;;;17.85;50.56;100746.91;5026206;28;20103;-42
2023/12/23 05:02:13;;;;;;;7.78;2.05;;;;;;;17.86;50.53;100751.25;5026852;28;20054;-43
2023/12/23 05:04:40;;;;;;;8.18;1.92;;;;;;;17.89;50.52;100763.47;5025714;28;20498;-42
2023/12/23 05:07:06;;;;;;;5.70;1.50;;;;;;;17.94;50.73;100747.78;5030149;28;20112;-42
2023/12/23 05:09:34;;;;;;;3.15;1.38;;;;;;;18.01;51.04;100754.22;5034405;28;20041;-43
2023/12/23 05:12:01;;;;;;;5.68;1.80;;;;;;;18.05;50.38;100750.25;5030817;28;20042;-42
2023/12/23 05:14:28;;;;;;;4.18;1.90;;;;;;;18.10;50.37;100753.28;5036764;28;20045;-43
2023/12/23 05:16:54;;;;;;;4.18;1.67;;;;;;;18.15;50.37;100750.13;5028448;28;20052;-43
2023/12/23 05:19:21;;;;;;;4.35;1.80;;;;;;;18.17;50.06;100749.00;5031031;28;20136;-42
2023/12/23 05:21:48;;;;;;;4.57;1.65;;;;;;;18.20;50.23;100748.66;5025648;28;20099;-42
2023/12/23 05:24:14;;;;;;;7.07;1.73;;;;;;;18.21;50.47;100739.63;5027036;28;20107;-43
2023/12/23 05:26:41;;;;;;;4.65;1.67;;;;;;;18.21;50.04;100728.91;5025614;28;20069;-42
2023/12/23 05:29:07;;;;;;;4.47;1.40;;;;;;;18.19;50.56;100727.34;5027037;28;20127;-43
2023/12/23 05:31:34;;;;;;;5.57;1.38;;;;;;;18.16;50.51;100730.34;5029804;28;20054;-41
2023/12/23 05:34:01;;;;;;;6.55;1.85;;;;;;;18.13;50.38;100747.63;5026878;28;20045;-43
2023/12/23 05:36:28;;;;;;;6.50;1.88;;;;;;;18.10;50.31;100757.81;5033103;28;20045;-42
2023/12/23 05:38:54;;;;;;;7.60;3.45;;;;;;;18.06;50.39;100730.47;5031047;28;20142;-42
2023/12/23 05:41:21;;;;;;;8.20;3.75;;;;;;;18.05;50.35;100733.28;5029109;28;20053;-41
2023/12/23 05:43:47;;;;;;;10.32;4.47;;;;;;;18.03;50.36;100735.28;5028622;28;20108;-43
2023/12/23 05:46:14;;;;;;;12.55;5.25;;;;;;;18.00;50.84;100741.78;5028454;28;20041;-43
2023/12/23 05:48:41;;;;;;;14.73;6.43;;;;;;;17.98;50.44;100727.72;5026387;28;20049;-41
2023/12/23 05:51:08;;;;;;;12.75;7.20;;;;;;;17.97;50.40;100731.41;5027509;28;20391;-42
2023/12/23 05:53:35;;;;;;;13.30;8.10;;;;;;;17.94;50.60;100718.31;5023987;28;20089;-42
2023/12/23 05:56:06;;;;;;;17.52;7.93;;;;;;;17.92;51.02;100722.97;5023904;28;20096;-42
2023/12/23 05:58:33;;;;;;;15.88;9.38;;;;;;;17.91;50.41;100718.59;5027960;28;20045;-42
2023/12/23 06:01:00;;;;;;;18.00;9.80;;;;;;;17.88;50.56;100714.38;5022696;28;20077;-42
2023/12/23 06:03:27;;;;;;;17.65;9.95;;;;;;;17.88;50.43;100730.47;5031919;28;20140;-42
2023/12/23 06:05:54;;;;;;;20.58;10.68;;;;;;;17.86;51.00;100727.13;5024053;28;20061;-42
2023/12/23 06:08:22;;;;;;;21.27;11.15;;;;;;;17.85;50.64;100732.63;5023631;28;20088;-42
2023/12/23 06:10:49;;;;;;;20.77;11.32;;;;;;;17.83;50.73;100735.47;5026144;28;20493;-43
2023/12/23 06:13:25;;;;;;;19.98;11.95;;;;;;;17.82;50.94;100731.13;5023460;28;20067;-42
2023/12/23 06:15:52;;;;;;;23.88;13.10;;;;;;;17.81;50.98;100728.56;5021471;28;20161;-43
2023/12/23 06:18:18;;;;;;;30.67;13.18;;;;;;;17.80;50.82;100713.47;5029851;28;20065;-42
2023/12/23 06:20:45;;;;;;;22.42;14.27;;;;;;;17.78;50.88;100764.59;5030674;28;20103;-42
2023/12/23 06:23:12;;;;;;;27.05;15.63;;;;;;;17.77;51.34;100746.81;5028847;28;20053;-42
2023/12/23 06:25:39;;;;;;;26.98;15.45;;;;;;;17.76;51.14;100727.19;5025416;28;20050;-42
2023/12/23 06:28:05;;;;;;;27.42;16.58;;;;;;;17.74;51.04;100723.84;5023801;28;20045;-43
2023/12/23 06:30:32;;;;;;;36.05;18.73;;;;;;;17.74;50.85;100731.88;5027548;28;20057;-41
2023/12/23 06:32:58;;;;;;;32.83;18.98;;;;;;;17.73;50.88;100711.41;5029124;28;20099;-42
2023/12/23 06:35:25;;;;;;;33.28;19.48;;;;;;;17.72;50.88;100715.06;5024533;28;20061;-41
2023/12/23 06:37:52;;;;;;;34.47;19.67;;;;;;;17.71;51.22;100716.06;5029767;28;20069;-42
2023/12/23 06:40:19;;;;;;;33.05;19.48;;;;;;;17.70;50.89;100709.03;5027908;28;20188;-42
2023/12/23 06:42:45;;;;;;;34.67;19.83;;;;;;;17.69;51.30;100702.00;5022399;28;20547;-42
2023/12/23 06:45:12;;;;;;;34.03;19.38;;;;;;;17.69;51.03;100706.50;5023359;28;20054;-42
2023/12/23 06:47:39;;;;;;;34.47;20.13;;;;;;;17.69;50.93;100712.72;5017003;28;20132;-42
2023/12/23 06:50:06;;;;;;;34.00;19.85;;;;;;;17.68;51.16;100705.66;5028315;28;20057;-42
2023/12/23 06:52:33;;;;;;;32.38;20.10;;;;;;;17.67;51.21;100711.16;5028828;28;20050;-42
2023/12/23 06:55:00;;;;;;;32.90;19.65;;;;;;;17.65;51.18;100710.50;5029555;28;20050;-42
2023/12/23 06:57:27;;;;;;;32.72;19.85;;;;;;;17.60;51.38;100721.66;5023117;28;20061;-42
2023/12/23 06:59:54;;;;;;;33.80;19.23;;;;;;;17.57;51.35;100719.31;5024669;28;20041;-42
2023/12/23 07:02:21;;;;;;;33.15;19.65;;;;;;;17.57;51.47;100703.22;5025278;28;20049;-42
2023/12/23 07:04:48;;;;;;;35.53;21.27;;;;;;;17.64;51.29;100719.50;5028336;28;20064;-40
2023/12/23 07:07:15;;;;;;;40.13;23.42;;;;;;;17.69;51.21;100720.75;5034877;28;20057;-42
2023/12/23 07:09:42;;;;;;;45.78;27.83;;;;;;;17.76;51.31;100723.66;5032599;28;20124;-43
2023/12/23 07:12:11;;;;;;;50.88;29.83;;;;;;;17.82;51.37;100731.13;5035460;28;20060;-43
2023/12/23 07:14:38;;;;;;;58.25;35.45;;;;;;;17.88;51.23;100729.63;5034542;28;20041;-42
2023/12/23 07:17:04;;;;;;;60.42;36.03;;;;;;;17.94;51.01;100727.19;5032980;28;20056;-42
2023/12/23 07:19:31;;;;;;;57.78;34.30;;;;;;;18.02;50.85;100744.34;5033128;28;20069;-43
2023/12/23 07:22:00;;;;;;;58.40;32.60;;;;;;;18.09;50.78;100748.06;5023776;28;20101;-43
2023/12/23 07:24:27;;;;;;;54.97;31.20;;;;;;;18.15;50.20;100745.59;5026469;28;20058;-42
2023/12/23 07:26:53;;;;;;;50.65;29.10;;;;;;;18.22;50.26;100743.97;5025280;28;20081;-43
2023/12/23 07:29:20;;;;;;;50.92;28.58;;;;;;;18.30;49.80;100747.72;5030808;28;20046;-43
2023/12/23 07:31:47;;;;;;;44.17;26.15;;;;;;;18.35;49.60;100740.03;5025713;28;20049;-43
2023/12/23 07:34:14;;;;;;;45.22;24.60;;;;;;;18.41;49.40;100734.88;5027994;28;20041;-42
2023/12/23 07:36:40;;;;;;;41.15;25.42;;;;;;;18.47;49.48;100736.91;5028870;28;20132;-43
2023/12/23 07:39:07;;;;;;;46.25;25.80;;;;;;;18.55;49.66;100738.81;5030814;28;20136;-43
2023/12/23 07:41:33;;;;;;;44.75;26.23;;;;;;;18.60;49.14;100746.38;5029174;28;20095;-42
2023/12/23 07:44:00;;;;;;;44.30;25.65;;;;;;;18.66;49.13;100741.22;5023567;28;20069;-43
2023/12/23 07:46:27;;;;;;;43.80;24.90;;;;;;;18.70;48.57;100742.63;5025444;28;20050;-43
2023/12/23 07:48:53;;;;;;;46.80;24.95;;;;;;;18.76;49.28;100737.59;5027922;28;20053;-43
2023/12/23 07:51:21;;;;;;;45.75;25.42;;;;;;;18.80;48.59;100752.38;5028291;28;20053;-43
2023/12/23 07:53:47;;;;;;;44.20;25.52;;;;;;;18.84;49.27;100740.31;5023995;28;20050;-42
2023/12/23 07:56:14;;;;;;;42.92;23.33;;;;;;;18.87;48.69;100745.38;5021674;28;20172;-42
2023/12/23 07:58:41;;;;;;;42.45;23.17;;;;;;;18.92;49.09;100743.03;5025776;28;20049;-43
2023/12/23 08:01:08;;;;;;;41.78;22.13;;;;;;;18.95;48.71;100757.00;5018006;28;20372;-43
2023/12/23 08:03:36;;;;;;;39.15;22.02;;;;;;;18.99;49.12;100757.50;5024064;28;20057;-42
2023/12/23 08:06:02;;;;;;;38.33;22.30;;;;;;;19.04;48.59;100760.53;5023153;28;20057;-43
2023/12/23 08:08:29;;;;;;;36.33;20.63;;;;;;;19.07;48.56;100757.53;5024314;28;20063;-43
2023/12/23 08:10:57;;;;;;;36.47;20.77;;;;;;;19.10;48.35;100764.44;5025530;28;20049;-44
2023/12/23 08:13:23;;;;;;;38.75;20.38;;;;;;;19.11;49.06;100761.59;4989079;28;20057;-45
2023/12/23 08:15:50;;;;;;;33.95;19.63;;;;;;;19.12;48.67;100755.19;5035588;28;20049;-44
2023/12/23 08:18:17;;;;;;;34.75;19.48;;;;;;;19.12;48.18;100771.31;5023897;28;20104;-44
2023/12/23 08:20:44;;;;;;;32.13;19.00;;;;;;;19.11;48.16;100772.31;5024376;28;20132;-44
2023/12/23 08:23:11;;;;;;;31.58;18.17;;;;;;;19.09;48.85;100771.63;5023124;28;20479;-44
2023/12/23 08:25:38;;;;;;;28.48;17.42;;;;;;;19.07;48.65;100768.28;5024521;28;20403;-44
2023/12/23 08:28:06;;;;;;;31.10;17.60;;;;;;;19.04;48.62;100775.81;5025763;28;20056;-44
2023/12/23 08:30:33;;;;;;;27.52;17.52;;;;;;;19.01;48.61;100773.44;5025170;28;20384;-44
2023/12/23 08:33:00;;;;;;;44.03;23.85;;;;;;;18.98;48.66;100782.69;5023301;28;20444;-44
2023/12/23 08:35:27;;;;;;;57.00;31.08;;;;;;;18.94;48.41;100782.16;5005222;28;20064;-43
2023/12/23 08:37:54;;;;;;;59.40;31.40;;;;;;;18.93;49.42;100779.63;5023506;28;20060;-43
2023/12/23 08:40:21;;;;;;;58.97;33.42;;;;;;;18.90;48.78;100788.03;5020863;28;20167;-43
2023/12/23 08:42:47;;;;;;;62.53;36.55;;;;;;;18.88;49.02;100787.34;5024261;28;20349;-42
2023/12/23 08:45:15;;;;;;;62.03;34.78;;;;;;;18.87;48.81;100793.72;5025031;28;20056;-43
2023/12/23 08:47:42;;;;;;;56.90;32.67;;;;;;;18.85;49.23;100801.06;5018562;28;20084;-42
2023/12/23 08:50:10;;;;;;;60.85;33.20;;;;;;;18.83;49.69;100793.19;5022554;28;20480;-43
2023/12/23 08:52:36;;;;;;;57.63;32.25;;;;;;;18.81;49.50;100802.41;5021647;28;20080;-43
2023/12/23 08:55:03;;;;;;;55.00;32.85;;;;;;;18.80;49.11;100795.34;4997618;28;20060;-41
2023/12/23 08:57:30;;;;;;;59.47;32.70;;;;;;;18.80;49.09;100804.25;5018388;28;20113;-43
2023/12/23 08:59:57;;;;;;;59.15;33.00;;;;;;;18.83;48.97;100814.66;5025423;28;20049;-43
2023/12/23 09:02:23;;;;;;;58.88;33.45;;;;;;;18.87;49.08;100818.72;5020528;28;20136;-42
2023/12/23 09:04:53;;;;;;;57.33;31.55;;;;;;;18.93;49.08;100820.75;5023902;28;20559;-43
2023/12/23 09:07:20;;;;;;;56.50;31.38;;;;;;;18.98;49.08;100821.13;5022419;28;20057;-43
2023/12/23 09:09:47;;;;;;;57.55;31.42;;;;;;;19.06;49.00;100801.53;5017937;28;20135;-43
2023/12/23 09:12:13;;;;;;;55.05;30.70;;;;;;;19.14;48.64;100822.22;5021468;28;20119;-44
2023/12/23 09:14:40;;;;;;;50.13;27.58;;;;;;;19.20;48.92;100814.34;4982601;28;20177;-43
2023/12/23 09:17:07;;;;;;;51.72;27.02;;;;;;;19.28;48.78;100828.81;5022691;28;20152;-43
2023/12/23 09:19:33;;;;;;;48.42;26.67;;;;;;;19.33;48.82;100831.84;5026423;28;20352;-43
2023/12/23 09:22:00;;;;;;;45.58;25.80;;;;;;;19.36;48.57;100835.06;5022485;28;20182;-43
2023/12/23 09:24:26;;;;;;;44.30;24.70;;;;;;;19.39;48.72;100834.72;5015810;28;20052;-44
2023/12/23 09:26:53;;;;;;;48.83;25.50;;;;;;;19.38;48.85;100827.69;5022193;28;20081;-42
2023/12/23 09:29:20;;;;;;;50.15;25.05;;;;;;;19.38;48.44;100840.28;5019756;28;20341;-42
2023/12/23 09:31:47;;;;;;;50.72;23.65;;;;;;;19.36;48.36;100826.16;5020075;28;20455;-43
2023/12/23 09:34:13;;;;;;;46.70;23.00;;;;;;;19.33;48.77;100832.69;4987036;28;20443;-44
2023/12/23 09:36:40;;;;;;;44.58;21.25;;;;;;;19.32;48.37;100832.84;5029790;28;20065;-43
2023/12/23 09:39:07;;;;;;;42.50;22.02;;;;;;;19.28;48.80;100837.72;5021057;28;20445;-42
2023/12/23 09:41:33;;;;;;;38.83;21.80;;;;;;;19.26;48.37;100836.19;5021810;28;20341;-43
2023/12/23 09:44:05;;;;;;;42.42;21.23;;;;;;;19.22;49.00;100839.22;4944345;27;1283013;-36
2023/12/23 09:46:32;;;;;;;46.58;23.55;;;;;;;19.20;48.85;100840.38;4978235;28;20635;-36
2023/12/23 09:48:58;;;;;;;42.03;23.65;;;;;;;19.17;49.10;100844.19;4980423;28;20059;-36
2023/12/23 09:51:31;;;;;;;41.97;23.75;;;;;;;19.14;48.67;100839.19;4980484;28;20050;-36
2023/12/23 09:54:05;;;;;;;47.75;24.40;;;;;;;19.12;49.06;100840.31;4944957;28;22662;-36
2023/12/23 09:56:34;;;;;;;44.35;24.23;;;;;;;19.10;49.21;100843.19;4977437;28;20105;-36
2023/12/23 09:59:00;;;;;;;45.70;24.77;;;;;;;19.07;49.30;100854.25;4978376;28;20054;-36
2023/12/23 10:01:27;;;;;;;40.08;23.48;;;;;;;19.07;48.65;100840.81;4980058;28;20466;-36
2023/12/23 10:03:54;;;;;;;41.58;24.27;;;;;;;19.06;48.82;100839.13;4977996;28;20478;-36
2023/12/23 10:06:22;;;;;;;41.13;22.50;;;;;;;19.09;48.69;100835.28;4978242;28;20122;-36
2023/12/23 10:08:49;;;;;;;44.83;22.73;;;;;;;19.12;48.48;100822.34;4979170;28;20054;-36
2023/12/23 10:11:16;;;;;;;41.70;23.20;;;;;;;19.17;48.68;100822.72;4974916;28;20483;-36
2023/12/23 10:13:43;;;;;;;38.85;21.77;;;;;;;19.24;48.58;100820.22;4952298;28;20358;-37
2023/12/23 10:16:10;;;;;;;40.50;20.70;;;;;;;19.32;48.65;100830.16;4982529;28;20153;-36
2023/12/23 10:18:39;;;;;;;40.03;20.38;;;;;;;19.38;48.30;100830.38;4981344;28;20140;-36
2023/12/23 10:21:06;;;;;;;35.05;19.25;;;;;;;19.46;48.31;100837.63;4973654;28;20146;-36
2023/12/23 10:23:33;;;;;;;37.60;19.83;;;;;;;19.52;48.61;100841.50;4977131;28;20043;-36
2023/12/23 10:26:01;;;;;;;44.45;24.35;;;;;;;19.55;47.98;100820.50;5000552;28;20058;-37
2023/12/23 10:28:28;;;;;;;52.13;29.27;;;;;;;19.57;48.11;100833.78;4978417;28;20303;-36
2023/12/23 10:31:00;;;;;;;57.65;31.98;;;;;;;19.59;48.36;100842.53;4978740;28;20676;-36
2023/12/23 10:33:30;;;;;;;57.13;31.80;;;;;;;19.56;48.03;100824.88;4977622;28;20065;-36
2023/12/23 10:35:58;;;;;;;62.88;33.28;;;;;;;19.56;48.11;100810.59;4953631;28;20088;-37
2023/12/23 10:38:26;;;;;;;63.45;36.15;;;;;;;19.53;47.89;100822.50;4975618;28;20061;-37
2023/12/23 10:41:11;;;;;;;54.40;29.52;;;;;;;19.48;47.55;100833.75;4976663;28;20141;-37
2023/12/23 10:43:38;;;;;;;57.15;30.67;;;;;;;19.46;48.46;100849.22;4973680;28;20062;-37
2023/12/23 10:46:07;;;;;;;57.47;32.03;;;;;;;19.43;48.25;100846.00;4976315;28;20144;-37
2023/12/23 10:48:36;;;;;;;57.95;33.78;;;;;;;19.39;48.17;100841.97;4975653;28;20594;-37
2023/12/23 10:51:03;;;;;;;60.20;35.85;;;;;;;19.35;48.17;100830.69;4972466;28;20397;-37
2023/12/23 10:53:31;;;;;;;60.08;35.78;;;;;;;19.33;48.36;100843.44;4968445;28;20453;-37
2023/12/23 10:55:58;;;;;;;57.58;35.63;;;;;;;19.31;48.03;100858.06;4934768;28;20058;-37
2023/12/23 10:58:26;;;;;;;65.53;37.05;;;;;;;19.29;48.22;100846.59;4972053;28;20046;-37
2023/12/23 11:00:54;;;;;;;65.15;37.85;;;;;;;19.27;48.72;100838.72;4965757;28;20047;-37
2023/12/23 11:03:21;;;;;;;66.68;38.67;;;;;;;19.23;48.13;100848.94;4964254;28;20427;-36
2023/12/23 11:05:49;;;;;;;63.00;37.05;;;;;;;19.22;48.75;100858.03;4961914;28;20402;-37
2023/12/23 11:08:21;;;;;;;60.05;35.92;;;;;;;19.20;48.52;100857.31;4965043;28;20386;-37
2023/12/23 11:10:48;;;;;;;60.88;35.15;;;;;;;19.18;48.29;100845.91;4964822;28;20050;-37
2023/12/23 11:13:15;;;;;;;58.53;33.88;;;;;;;19.17;48.34;100852.25;4965488;28;20050;-37
2023/12/23 11:15:45;;;;;;;61.30;35.35;;;;;;;19.16;48.61;100849.75;4940294;28;20064;-37
2023/12/23 11:18:11;;;;;;;58.63;34.22;;;;;;;19.14;48.27;100855.28;4968339;28;20055;-37